createdAt,value
2023-03-19T00:02:04.070Z,22.30
2023-03-19T00:04:41.951Z,22.30
2023-03-19T00:07:11.641Z,21.60
2023-03-19T00:09:41.654Z,21.90
2023-03-19T00:12:13.567Z,24.58
2023-03-19T00:14:43.574Z,21.30
2023-03-19T00:17:13.656Z,18.98
2023-03-19T00:19:43.189Z,23.55
2023-03-19T00:22:13.440Z,16.33
2023-03-19T00:24:43.013Z,23.98
2023-03-19T00:27:13.563Z,22.50
2023-03-19T00:29:43.255Z,24.52
2023-03-19T00:32:12.978Z,24.38
2023-03-19T00:34:43.403Z,23.08
2023-03-19T00:37:13.755Z,24.35
2023-03-19T00:39:43.469Z,21.13
2023-03-19T00:42:13.584Z,18.95
2023-03-19T00:44:43.412Z,20.17
2023-03-19T00:47:13.498Z,17.73
2023-03-19T00:49:43.196Z,25.48
2023-03-19T00:52:12.793Z,21.98
2023-03-19T00:54:43.103Z,25.92
2023-03-19T00:57:12.933Z,22.40
2023-03-19T00:59:42.909Z,23.23
2023-03-19T01:02:12.564Z,21.65
2023-03-19T01:04:42.467Z,21.50
2023-03-19T01:07:12.914Z,19.48
2023-03-19T01:09:42.827Z,19.33
2023-03-19T01:12:12.663Z,22.77
2023-03-19T01:14:42.739Z,17.77
2023-03-19T01:17:12.411Z,22.38
2023-03-19T01:19:41.941Z,21.55
2023-03-19T01:22:11.636Z,24.50
2023-03-19T01:24:41.236Z,24.70
2023-03-19T01:27:11.382Z,23.98
2023-03-19T01:29:41.079Z,23.95
2023-03-19T01:32:10.693Z,20.95
2023-03-19T01:34:40.277Z,22.73
2023-03-19T01:37:09.882Z,25.65
2023-03-19T01:39:39.604Z,22.10
2023-03-19T01:42:09.894Z,20.48
2023-03-19T01:44:41.255Z,22.33
2023-03-19T01:47:18.361Z,22.38
2023-03-19T01:49:59.232Z,21.45
2023-03-19T01:52:34.103Z,22.75
2023-03-19T01:55:07.190Z,25.65
2023-03-19T01:57:38.102Z,22.75
2023-03-19T02:00:09.663Z,25.67
2023-03-19T02:02:42.731Z,24.90
2023-03-19T02:05:19.301Z,28.02
2023-03-19T02:07:49.190Z,22.55
2023-03-19T02:10:20.093Z,24.45
2023-03-19T02:12:50.029Z,24.35
2023-03-19T02:15:20.243Z,22.90
2023-03-19T02:17:50.807Z,21.95
2023-03-19T02:20:29.468Z,20.17
2023-03-19T02:23:08.125Z,24.90
2023-03-19T02:25:47.092Z,17.73
2023-03-19T02:28:21.148Z,21.13
2023-03-19T02:30:50.953Z,24.13
2023-03-19T02:33:21.809Z,26.00
2023-03-19T02:35:54.491Z,21.00
2023-03-19T02:38:26.198Z,21.73
2023-03-19T02:41:03.963Z,23.40
2023-03-19T02:43:35.801Z,18.00
2023-03-19T02:46:07.874Z,20.17
2023-03-19T02:48:38.221Z,23.30
2023-03-19T02:51:08.343Z,18.15
2023-03-19T02:53:38.348Z,16.52
2023-03-19T02:56:08.192Z,21.80
2023-03-19T02:58:37.869Z,26.38
2023-03-19T03:01:07.941Z,23.38
2023-03-19T03:03:37.573Z,23.00
2023-03-19T03:06:07.659Z,25.08
2023-03-19T03:08:38.259Z,23.02
2023-03-19T03:11:08.085Z,21.42
2023-03-19T03:13:38.214Z,24.33
2023-03-19T03:16:08.164Z,24.27
2023-03-19T03:18:38.291Z,22.10
2023-03-19T03:21:07.998Z,25.00
2023-03-19T03:23:38.238Z,25.17
2023-03-19T03:26:08.951Z,28.60
2023-03-19T03:28:38.503Z,25.30
2023-03-19T03:31:08.204Z,20.17
2023-03-19T03:33:38.335Z,28.48
2023-03-19T03:36:08.705Z,25.45
2023-03-19T03:38:38.278Z,20.95
2023-03-19T03:41:08.589Z,24.15
2023-03-19T03:43:38.160Z,26.13
2023-03-19T03:46:08.932Z,24.63
2023-03-19T03:48:38.672Z,25.13
2023-03-19T03:51:09.025Z,28.08
2023-03-19T03:53:38.622Z,27.10
2023-03-19T03:56:08.638Z,23.67
2023-03-19T03:58:38.269Z,27.23
2023-03-19T04:01:09.169Z,26.50
2023-03-19T04:03:39.190Z,28.80
2023-03-19T04:06:08.955Z,28.00
2023-03-19T04:08:38.603Z,25.50
2023-03-19T04:11:11.464Z,26.27
2023-03-19T04:13:41.317Z,27.48
2023-03-19T04:16:12.573Z,27.77
2023-03-19T04:18:42.243Z,28.58
2023-03-19T04:21:11.847Z,22.73
2023-03-19T04:23:41.471Z,27.30
2023-03-19T04:26:12.043Z,30.00
2023-03-19T04:28:41.573Z,28.10
2023-03-19T04:31:12.353Z,30.55
2023-03-19T04:33:41.950Z,29.73
2023-03-19T04:36:11.580Z,29.65
2023-03-19T04:38:41.170Z,30.40
2023-03-19T04:41:10.725Z,29.10
2023-03-19T04:43:40.320Z,30.95
2023-03-19T04:46:10.040Z,29.52
2023-03-19T04:48:40.985Z,34.08
2023-03-19T04:51:11.102Z,30.40
2023-03-19T04:53:41.501Z,33.75
2023-03-19T04:56:11.274Z,32.00
2023-03-19T04:58:40.885Z,32.28
2023-03-19T05:01:10.722Z,31.52
2023-03-19T05:03:40.602Z,30.38
2023-03-19T05:06:10.843Z,33.28
2023-03-19T05:08:40.409Z,35.58
2023-03-19T05:11:10.125Z,29.65
2023-03-19T05:13:39.731Z,34.20
2023-03-19T05:16:09.573Z,35.45
2023-03-19T05:18:41.269Z,32.08
2023-03-19T05:21:13.939Z,32.75
2023-03-19T05:23:43.672Z,33.50
2023-03-19T05:26:13.689Z,27.80
2023-03-19T05:28:43.309Z,31.05
2023-03-19T05:31:12.887Z,29.17
2023-03-19T05:33:43.382Z,30.70
2023-03-19T05:36:13.900Z,26.23
2023-03-19T05:38:43.585Z,27.52
2023-03-19T05:41:13.319Z,28.00
2023-03-19T05:43:43.205Z,29.52
2023-03-19T05:46:12.988Z,30.25
2023-03-19T05:48:42.620Z,26.58
2023-03-19T05:51:13.168Z,28.38
2023-03-19T05:53:42.731Z,24.55
2023-03-19T05:56:12.474Z,28.42
2023-03-19T05:58:42.086Z,28.50
2023-03-19T06:01:12.066Z,25.65
2023-03-19T06:03:41.782Z,28.52
2023-03-19T06:06:11.452Z,27.73
2023-03-19T06:08:41.184Z,24.48
2023-03-19T06:11:11.701Z,24.33
2023-03-19T06:13:41.376Z,22.50
2023-03-19T06:16:11.354Z,25.33
2023-03-19T06:18:41.194Z,22.67
2023-03-19T06:21:11.295Z,32.25
2023-03-19T06:23:41.126Z,26.08
2023-03-19T06:26:10.816Z,22.33
2023-03-19T06:28:40.374Z,27.70
2023-03-19T06:31:09.981Z,26.20
2023-03-19T06:33:39.526Z,26.20
2023-03-19T06:36:09.364Z,25.88
2023-03-19T06:38:39.356Z,29.35
2023-03-19T06:41:09.348Z,30.23
2023-03-19T06:43:39.090Z,26.55
2023-03-19T06:46:10.862Z,28.25
2023-03-19T06:48:41.332Z,26.35
2023-03-19T06:51:10.997Z,24.98
2023-03-19T06:53:41.405Z,27.55
2023-03-19T06:56:11.936Z,25.98
2023-03-19T06:58:41.517Z,26.17
2023-03-19T07:01:11.161Z,24.17
2023-03-19T07:03:40.759Z,25.65
2023-03-19T07:06:10.638Z,25.67
2023-03-19T07:08:40.215Z,26.60
2023-03-19T07:11:10.237Z,23.67
2023-03-19T07:13:39.815Z,24.75
2023-03-19T07:16:10.345Z,22.67
2023-03-19T07:18:39.998Z,27.05
2023-03-19T07:21:12.547Z,22.85
2023-03-19T07:23:43.115Z,25.88
2023-03-19T07:26:13.168Z,24.90
2023-03-19T07:28:43.117Z,23.15
2023-03-19T07:31:12.868Z,24.85
2023-03-19T07:33:42.554Z,24.73
2023-03-19T07:36:12.850Z,23.92
2023-03-19T07:38:42.503Z,26.38
2023-03-19T07:41:12.204Z,21.23
2023-03-19T07:43:41.934Z,23.77
2023-03-19T07:46:11.839Z,24.55
2023-03-19T07:48:41.510Z,22.38
2023-03-19T07:51:11.073Z,22.25
2023-03-19T07:53:40.752Z,21.42
2023-03-19T07:56:10.427Z,23.75
2023-03-19T07:58:39.969Z,27.73
2023-03-19T08:01:10.741Z,25.95
2023-03-19T08:03:41.006Z,22.08
2023-03-19T08:06:10.658Z,22.30
2023-03-19T08:08:40.273Z,22.23
2023-03-19T08:11:10.282Z,25.27
2023-03-19T08:13:39.820Z,21.05
2023-03-19T08:16:10.100Z,22.83
2023-03-19T08:18:39.906Z,26.92
2023-03-19T08:21:09.897Z,22.77
2023-03-19T08:23:39.496Z,23.92
2023-03-19T08:26:09.812Z,22.88
2023-03-19T08:28:40.703Z,24.42
2023-03-19T08:31:12.598Z,23.35
2023-03-19T08:33:43.097Z,23.77
2023-03-19T08:36:16.029Z,25.83
2023-03-19T08:38:45.772Z,25.25
2023-03-19T08:41:15.495Z,32.15
2023-03-19T08:43:45.007Z,23.55
2023-03-19T08:46:14.844Z,25.00
2023-03-19T08:48:44.754Z,20.23
2023-03-19T08:51:14.537Z,23.15
2023-03-19T08:53:44.103Z,24.38
2023-03-19T08:56:13.727Z,26.23
2023-03-19T08:58:44.228Z,25.98
2023-03-19T09:01:16.254Z,23.67
2023-03-19T09:03:46.936Z,27.52
2023-03-19T09:06:16.546Z,22.40
2023-03-19T09:08:46.375Z,21.95
2023-03-19T09:11:18.310Z,25.67
2023-03-19T09:13:48.074Z,24.20
2023-03-19T09:16:18.288Z,23.42
2023-03-19T09:18:48.180Z,23.90
2023-03-19T09:21:17.819Z,23.52
2023-03-19T09:23:47.549Z,21.98
2023-03-19T09:26:17.182Z,28.92
2023-03-19T09:28:46.745Z,25.50
2023-03-19T09:31:16.387Z,25.50
2023-03-19T09:33:46.063Z,26.98
2023-03-19T09:36:15.683Z,25.50
2023-03-19T09:38:45.248Z,24.38
2023-03-19T09:41:41.879Z,22.70
2023-03-19T09:44:37.172Z,24.88
2023-03-19T09:47:06.930Z,22.95
2023-03-19T09:49:45.178Z,24.58
2023-03-19T09:52:39.140Z,22.30
2023-03-19T09:55:19.088Z,23.48
2023-03-19T09:57:50.024Z,21.92
2023-03-19T10:00:30.255Z,26.67
2023-03-19T10:03:45.515Z,23.63
2023-03-19T10:06:35.248Z,23.13
2023-03-19T10:09:23.004Z,23.25
2023-03-19T10:12:07.853Z,25.58
2023-03-19T10:14:50.316Z,25.98
2023-03-19T10:17:37.164Z,25.58
2023-03-19T10:20:12.107Z,26.00
2023-03-19T10:22:59.460Z,28.90
2023-03-19T10:25:31.483Z,26.60
2023-03-19T10:28:22.890Z,26.75
2023-03-19T10:31:31.527Z,27.17
2023-03-19T10:34:34.203Z,31.05
2023-03-19T10:37:09.488Z,29.05
2023-03-19T10:39:41.558Z,27.42
2023-03-19T10:42:11.102Z,26.98
2023-03-19T10:45:09.636Z,29.13
2023-03-19T10:47:43.581Z,27.98
2023-03-19T10:50:22.392Z,28.75
2023-03-19T10:53:05.634Z,30.92
2023-03-19T10:55:36.418Z,28.17
2023-03-19T10:58:17.332Z,28.08
2023-03-19T11:00:51.337Z,28.08
2023-03-19T11:03:34.380Z,27.85
2023-03-19T11:06:10.439Z,28.90
2023-03-19T11:08:40.586Z,31.73
2023-03-19T11:11:34.624Z,30.33
2023-03-19T11:14:21.834Z,26.48
2023-03-19T11:17:31.423Z,32.30
2023-03-19T11:20:10.114Z,29.48
2023-03-19T11:22:41.923Z,32.72
2023-03-19T11:25:30.664Z,31.98
2023-03-19T11:28:22.103Z,33.08
2023-03-19T11:31:35.485Z,30.05
2023-03-19T11:34:05.076Z,29.33
2023-03-19T11:36:40.545Z,33.78
2023-03-19T11:39:29.015Z,32.60
2023-03-19T11:42:23.456Z,34.33
2023-03-19T11:45:03.323Z,34.45
2023-03-19T11:47:45.022Z,29.17
2023-03-19T11:50:29.452Z,33.28
2023-03-19T11:53:01.945Z,31.00
2023-03-19T11:55:41.577Z,34.78
2023-03-19T11:58:38.836Z,31.17
2023-03-19T12:01:46.074Z,35.47
2023-03-19T12:04:52.359Z,36.22
2023-03-19T12:07:44.052Z,34.55
2023-03-19T12:10:29.225Z,34.47
2023-03-19T12:13:23.869Z,34.03
2023-03-19T12:16:20.333Z,36.13
2023-03-19T12:19:02.032Z,34.35
2023-03-19T12:21:43.676Z,37.67
2023-03-19T12:24:23.170Z,31.95
2023-03-19T12:27:05.852Z,33.58
2023-03-19T12:29:58.977Z,38.85
2023-03-19T12:32:34.771Z,32.97
2023-03-19T12:35:21.296Z,38.08
2023-03-19T12:38:15.778Z,33.80
2023-03-19T12:40:50.181Z,34.72
2023-03-19T12:43:56.864Z,35.25
2023-03-19T12:46:39.488Z,39.45
2023-03-19T12:49:48.063Z,36.70
2023-03-19T12:52:20.436Z,38.58
2023-03-19T12:55:06.015Z,39.17
2023-03-19T12:57:38.252Z,36.63
2023-03-19T13:00:21.790Z,38.67
2023-03-19T13:02:59.192Z,36.83
2023-03-19T13:05:47.926Z,40.63
2023-03-19T13:08:40.045Z,40.67
2023-03-19T13:11:28.154Z,40.00
2023-03-19T13:14:06.165Z,36.85
2023-03-19T13:17:04.788Z,40.45
2023-03-19T13:19:43.607Z,45.30
2023-03-19T13:22:17.605Z,39.38
2023-03-19T13:24:49.604Z,36.65
2023-03-19T13:27:32.996Z,35.45
2023-03-19T13:30:14.671Z,39.67
2023-03-19T13:32:53.751Z,40.45
2023-03-19T13:35:38.673Z,39.97
2023-03-19T13:38:46.379Z,40.83
2023-03-19T13:41:37.370Z,38.70
2023-03-19T13:44:25.152Z,39.13
2023-03-19T13:46:55.061Z,42.05
2023-03-19T13:49:32.621Z,42.13
2023-03-19T13:52:06.284Z,36.17
2023-03-19T13:57:18.408Z,39.83
2023-03-19T13:59:49.945Z,40.78
2023-03-19T14:02:25.778Z,41.22
2023-03-19T14:05:20.105Z,37.85
2023-03-19T14:07:55.574Z,40.42
2023-03-19T14:10:33.566Z,38.25
2023-03-19T14:13:07.956Z,42.45
2023-03-19T14:15:40.963Z,41.50
2023-03-19T14:18:20.335Z,40.05
2023-03-19T14:21:13.023Z,45.40
2023-03-19T14:23:53.173Z,40.30
2023-03-19T14:27:17.704Z,39.65
2023-03-19T14:30:17.439Z,39.08
2023-03-19T14:32:49.529Z,41.38
2023-03-19T14:35:22.213Z,44.33
2023-03-19T14:37:55.933Z,40.72
2023-03-19T14:40:46.402Z,36.78
2023-03-19T14:43:58.723Z,42.80
2023-03-19T14:47:02.717Z,37.50
2023-03-19T14:50:26.915Z,39.85
2023-03-19T14:53:16.302Z,41.33
2023-03-19T14:55:49.398Z,40.08
2023-03-19T14:59:11.118Z,37.80
2023-03-19T15:02:17.272Z,39.15
2023-03-19T15:05:26.239Z,40.63
2023-03-19T15:08:06.036Z,37.38
2023-03-19T15:11:00.339Z,38.97
2023-03-19T15:16:48.031Z,41.33
2023-03-19T15:19:21.954Z,36.78
2023-03-19T15:22:47.886Z,42.30
2023-03-19T15:25:54.196Z,39.90
2023-03-19T15:28:23.820Z,38.70
2023-03-19T15:31:26.806Z,40.42
2023-03-19T15:33:55.361Z,40.00
2023-03-19T15:36:31.568Z,40.20
2023-03-19T15:39:07.813Z,39.13
2023-03-19T15:41:43.365Z,39.67
2023-03-19T15:44:27.635Z,42.38
2023-03-19T15:46:59.560Z,40.63
2023-03-19T15:49:34.517Z,42.20
2023-03-19T15:52:09.114Z,38.45
2023-03-19T15:54:38.859Z,36.30
2023-03-19T15:57:10.410Z,42.42
2023-03-19T15:59:40.368Z,39.05
2023-03-19T16:02:42.003Z,40.72
2023-03-19T16:05:41.041Z,40.17
2023-03-19T16:08:27.762Z,39.25
2023-03-19T16:10:57.764Z,35.42
2023-03-19T16:13:34.715Z,40.97
2023-03-19T16:16:22.985Z,42.47
2023-03-19T16:18:57.740Z,40.92
2023-03-19T16:21:30.111Z,43.47
2023-03-19T16:24:11.198Z,39.13
2023-03-19T16:26:43.851Z,37.88
2023-03-19T16:29:27.832Z,40.22
2023-03-19T16:32:20.917Z,42.63
2023-03-19T16:35:15.688Z,39.55
2023-03-19T16:37:54.946Z,42.63
2023-03-19T16:40:25.336Z,44.20
2023-03-19T16:43:08.062Z,42.17
2023-03-19T16:45:37.850Z,41.95
2023-03-19T16:48:07.691Z,40.35
2023-03-19T16:50:42.403Z,40.65
2023-03-19T16:53:38.047Z,41.22
2023-03-19T16:56:08.146Z,47.22
2023-03-19T16:58:45.785Z,39.08
2023-03-19T17:01:21.453Z,41.95
2023-03-19T17:03:56.528Z,39.72
2023-03-19T17:06:26.671Z,45.90
2023-03-19T17:08:56.439Z,41.95
2023-03-19T17:11:30.182Z,40.15
2023-03-19T17:14:01.301Z,44.47
2023-03-19T17:16:31.688Z,40.83
2023-03-19T17:19:01.523Z,42.45
2023-03-19T17:21:35.034Z,41.08
2023-03-19T17:24:26.036Z,40.78
2023-03-19T17:26:57.175Z,41.50
2023-03-19T17:29:27.727Z,42.17
2023-03-19T17:31:59.862Z,44.20
2023-03-19T17:34:33.419Z,40.00
2023-03-19T17:37:05.263Z,40.47
2023-03-19T17:39:35.653Z,39.55
2023-03-19T17:42:08.907Z,37.88
2023-03-19T17:44:38.522Z,42.65
2023-03-19T17:47:08.277Z,41.38
2023-03-19T17:49:37.886Z,42.70
2023-03-19T17:52:16.385Z,38.75
2023-03-19T17:54:47.137Z,39.58
2023-03-19T17:57:17.803Z,38.00
2023-03-19T17:59:47.501Z,42.83
2023-03-19T18:02:32.019Z,40.60
2023-03-19T18:05:01.786Z,41.40
2023-03-19T18:07:31.420Z,41.13
2023-03-19T18:10:01.036Z,42.20
2023-03-19T18:12:30.621Z,40.17
2023-03-19T18:15:00.280Z,41.80
2023-03-19T18:17:29.778Z,43.33
2023-03-19T18:19:59.827Z,41.15
2023-03-19T18:22:30.626Z,41.85
2023-03-19T18:25:00.264Z,43.83
2023-03-19T18:27:29.849Z,48.97
2023-03-19T18:29:59.491Z,44.90
2023-03-19T18:32:33.909Z,44.10
2023-03-19T18:35:05.062Z,42.28
2023-03-19T18:37:37.653Z,40.97
2023-03-19T18:40:07.744Z,47.35
2023-03-19T18:42:37.411Z,41.15
2023-03-19T18:45:07.495Z,47.78
2023-03-19T18:47:37.868Z,44.15
2023-03-19T18:50:25.021Z,48.42
2023-03-19T18:52:55.970Z,39.40
2023-03-19T18:55:35.603Z,41.20
2023-03-19T18:58:05.719Z,42.75
2023-03-19T19:00:37.713Z,41.88
2023-03-19T19:03:07.646Z,42.85
2023-03-19T19:05:37.852Z,47.97
2023-03-19T19:08:14.965Z,45.72
2023-03-19T19:10:51.000Z,42.75
2023-03-19T19:13:38.635Z,43.53
2023-03-19T19:16:22.460Z,45.72
2023-03-19T19:18:52.011Z,43.00
2023-03-19T19:21:21.666Z,42.72
2023-03-19T19:23:51.273Z,43.67
2023-03-19T19:26:25.831Z,46.60
2023-03-19T19:28:58.225Z,46.33
2023-03-19T19:31:33.823Z,41.40
2023-03-19T19:34:03.513Z,45.22
2023-03-19T19:36:33.361Z,44.13
2023-03-19T19:39:03.026Z,49.40
2023-03-19T19:41:35.457Z,45.28
2023-03-19T19:44:05.233Z,45.08
2023-03-19T19:46:35.231Z,46.92
2023-03-19T19:49:04.864Z,49.45
2023-03-19T19:51:34.416Z,48.72
2023-03-19T19:54:03.933Z,44.55
2023-03-19T19:56:33.607Z,43.10
2023-03-19T19:59:03.266Z,47.50
2023-03-19T20:01:33.103Z,46.17
2023-03-19T20:04:02.833Z,48.15
2023-03-19T20:06:32.506Z,45.53
2023-03-19T20:09:02.138Z,48.45
2023-03-19T20:11:33.501Z,40.03
2023-03-19T20:14:03.111Z,46.65
2023-03-19T20:16:32.681Z,44.55
2023-03-19T20:19:03.084Z,42.78
2023-03-19T20:21:33.577Z,44.78
2023-03-19T20:24:03.337Z,41.30
2023-03-19T20:26:35.462Z,45.88
2023-03-19T20:29:06.138Z,43.63
2023-03-19T20:31:37.856Z,41.03
2023-03-19T20:34:07.407Z,41.10
2023-03-19T20:36:36.942Z,42.25
2023-03-19T20:39:06.588Z,37.90
2023-03-19T20:41:36.267Z,46.25
2023-03-19T20:44:07.559Z,45.33
2023-03-19T20:46:38.130Z,44.72
2023-03-19T20:49:07.857Z,41.80
2023-03-19T20:51:37.425Z,42.45
2023-03-19T20:54:07.627Z,40.53
2023-03-19T20:56:39.273Z,42.03
2023-03-19T20:59:11.875Z,46.20
2023-03-19T21:01:41.556Z,47.28
2023-03-19T21:04:20.075Z,59.25
2023-03-19T21:06:53.634Z,46.58
2023-03-19T21:09:25.121Z,39.30
2023-03-19T21:11:54.741Z,40.70
2023-03-19T21:14:28.459Z,30.05
2023-03-19T21:16:58.002Z,28.15
2023-03-19T21:19:27.609Z,32.25
2023-03-19T21:21:57.275Z,33.08
2023-03-19T21:24:27.771Z,42.33
2023-03-19T21:26:58.405Z,37.05
2023-03-19T21:29:34.670Z,30.95
2023-03-19T21:32:04.182Z,29.27
2023-03-19T21:34:33.869Z,32.13
2023-03-19T21:37:03.559Z,32.58
2023-03-19T21:39:34.073Z,34.28
2023-03-19T21:42:09.686Z,33.35
2023-03-19T21:44:39.735Z,28.40
2023-03-19T21:47:15.248Z,30.13
2023-03-19T21:49:44.871Z,29.80
2023-03-19T21:52:17.242Z,31.05
2023-03-19T21:54:46.856Z,30.67
2023-03-19T21:57:18.773Z,30.88
2023-03-19T21:59:48.564Z,33.53
2023-03-19T22:02:30.276Z,27.25
2023-03-19T22:04:59.951Z,30.75
2023-03-19T22:07:29.723Z,30.15
2023-03-19T22:09:59.445Z,30.08
2023-03-19T22:12:30.816Z,29.55
2023-03-19T22:15:00.382Z,25.33
2023-03-19T22:17:30.718Z,29.30
2023-03-19T22:20:00.387Z,36.65
2023-03-19T22:22:30.570Z,31.10
2023-03-19T22:25:01.812Z,24.67
2023-03-19T22:27:31.444Z,31.30
2023-03-19T22:30:03.590Z,30.83
2023-03-19T22:32:33.363Z,27.23
2023-03-19T22:35:04.700Z,24.80
2023-03-19T22:37:34.492Z,27.38
2023-03-19T22:40:04.146Z,24.05
2023-03-19T22:42:33.806Z,25.52
2023-03-19T22:45:03.476Z,28.05
2023-03-19T22:47:37.487Z,24.92
2023-03-19T22:50:08.412Z,24.63
2023-03-19T22:52:38.235Z,26.75
2023-03-19T22:55:08.234Z,24.30
2023-03-19T22:57:37.762Z,25.13
2023-03-19T23:00:14.666Z,25.95
2023-03-19T23:02:44.878Z,29.65
2023-03-19T23:05:29.435Z,30.65
2023-03-19T23:07:59.462Z,32.67
2023-03-19T23:10:31.990Z,33.05
2023-03-19T23:13:02.456Z,38.83
2023-03-19T23:15:33.130Z,33.35
2023-03-19T23:18:03.784Z,40.58
2023-03-19T23:20:35.231Z,37.33
2023-03-19T23:23:04.777Z,37.22
2023-03-19T23:25:35.374Z,40.95
2023-03-19T23:28:05.399Z,40.83
2023-03-19T23:30:36.025Z,46.67
2023-03-19T23:33:05.856Z,52.88
2023-03-19T23:35:36.686Z,47.28
2023-03-19T23:38:06.434Z,52.50
2023-03-19T23:40:36.654Z,53.28
2023-03-19T23:43:07.151Z,40.40
2023-03-19T23:45:44.765Z,44.25
2023-03-19T23:48:27.361Z,51.85
2023-03-19T23:50:56.878Z,40.30
2023-03-19T23:53:29.004Z,54.10
2023-03-19T23:56:06.320Z,48.85
2023-03-19T23:58:44.649Z,41.92
